createdAt,value
2023-05-04T00:00:54.089Z,61.40
2023-05-04T00:05:58.133Z,61.70
2023-05-04T00:11:03.557Z,62.00
2023-05-04T00:16:10.418Z,62.20
2023-05-04T00:21:14.964Z,62.30
2023-05-04T00:26:20.403Z,62.60
2023-05-04T00:31:24.931Z,62.80
2023-05-04T00:36:29.047Z,62.90
2023-05-04T00:41:34.470Z,63.30
2023-05-04T00:46:39.587Z,64.20
2023-05-04T00:51:43.774Z,63.70
2023-05-04T00:56:49.627Z,63.70
2023-05-04T01:01:53.628Z,63.70
2023-05-04T01:07:08.710Z,64.10
2023-05-04T01:12:19.334Z,64.30
2023-05-04T01:17:23.333Z,64.50
2023-05-04T01:22:28.966Z,64.70
2023-05-04T01:27:41.655Z,64.80
2023-05-04T01:32:48.543Z,65.10
2023-05-04T01:37:53.795Z,65.30
2023-05-04T01:42:57.900Z,67.00
2023-05-04T01:48:02.013Z,65.60
2023-05-04T01:53:07.393Z,65.90
2023-05-04T01:58:11.416Z,66.00
2023-05-04T02:03:15.594Z,66.30
2023-05-04T02:08:21.276Z,66.60
2023-05-04T02:13:25.201Z,66.50
2023-05-04T02:18:29.233Z,66.70
2023-05-04T02:23:34.629Z,66.90
2023-05-04T02:28:38.697Z,67.40
2023-05-04T02:33:42.800Z,67.30
2023-05-04T02:38:48.396Z,67.50
2023-05-04T02:43:52.463Z,67.80
2023-05-04T02:48:56.652Z,67.90
2023-05-04T02:54:02.011Z,68.30
2023-05-04T02:59:06.041Z,68.50
2023-05-04T03:04:10.190Z,68.60
2023-05-04T03:09:15.596Z,68.90
2023-05-04T03:14:20.106Z,69.30
2023-05-04T03:19:24.275Z,69.60
2023-05-04T03:24:29.979Z,69.80
2023-05-04T03:29:34.247Z,70.00
2023-05-04T03:34:38.645Z,70.00
2023-05-04T03:39:45.119Z,70.30
2023-05-04T03:44:49.188Z,70.60
2023-05-04T03:49:53.281Z,70.70
2023-05-04T03:54:59.621Z,71.30
2023-05-04T04:00:04.284Z,71.40
2023-05-04T04:05:18.792Z,71.80
2023-05-04T04:10:25.969Z,71.90
2023-05-04T04:15:30.122Z,72.10
2023-05-04T04:20:34.457Z,72.30
2023-05-04T04:25:39.850Z,72.70
2023-05-04T04:30:43.980Z,72.90
2023-05-04T04:35:48.296Z,73.30
2023-05-04T04:40:53.774Z,73.30
2023-05-04T04:45:58.676Z,73.90
2023-05-04T04:51:02.775Z,74.00
2023-05-04T04:56:09.802Z,74.40
2023-05-04T05:01:17.665Z,74.80
2023-05-04T05:06:21.582Z,77.50
2023-05-04T05:11:27.134Z,74.90
2023-05-04T05:16:31.192Z,75.50
2023-05-04T05:21:35.216Z,75.30
2023-05-04T05:26:40.585Z,75.40
2023-05-04T05:31:44.570Z,76.10
2023-05-04T05:36:49.074Z,76.00
2023-05-04T05:41:58.338Z,76.50
2023-05-04T05:47:02.636Z,76.70
2023-05-04T05:52:07.030Z,76.50
2023-05-04T05:57:12.502Z,77.20
2023-05-04T06:02:16.602Z,76.70
2023-05-04T06:07:21.721Z,77.00
2023-05-04T06:12:27.251Z,77.10
2023-05-04T06:17:31.382Z,77.20
2023-05-04T06:22:35.509Z,77.80
2023-05-04T06:27:41.000Z,77.80
2023-05-04T06:32:45.247Z,78.00
2023-05-04T06:42:59.447Z,78.10
2023-05-04T06:48:03.574Z,78.20
2023-05-04T06:53:09.284Z,78.20
2023-05-04T06:58:14.823Z,78.60
2023-05-04T07:03:18.855Z,78.60
2023-05-04T07:08:22.821Z,78.70
2023-05-04T07:13:28.389Z,79.10
2023-05-04T07:18:32.581Z,79.10
2023-05-04T07:23:37.112Z,79.00
2023-05-04T07:28:43.878Z,79.10
2023-05-04T07:33:48.897Z,79.20
2023-05-04T07:38:52.945Z,79.30
2023-05-04T07:43:58.369Z,79.30
2023-05-04T07:49:03.272Z,79.00
2023-05-04T07:54:07.442Z,79.40
2023-05-04T07:59:13.015Z,79.00
2023-05-04T08:04:17.121Z,79.30
2023-05-04T08:09:21.337Z,79.00
2023-05-04T08:14:26.773Z,78.90
2023-05-04T08:19:31.053Z,78.40
2023-05-04T08:24:35.084Z,78.30
2023-05-04T08:29:41.755Z,78.10
2023-05-04T08:34:47.431Z,78.40
2023-05-04T08:39:51.551Z,78.60
2023-05-04T08:44:58.306Z,78.80
2023-05-04T08:50:04.688Z,78.00
2023-05-04T08:55:13.191Z,77.60
2023-05-04T09:00:20.749Z,77.90
2023-05-04T09:05:26.229Z,77.90
2023-05-04T09:10:30.395Z,78.00
2023-05-04T09:15:35.817Z,78.40
2023-05-04T09:20:47.828Z,77.90
2023-05-04T09:25:53.704Z,79.00
2023-05-04T09:31:02.568Z,79.20
2023-05-04T09:36:17.148Z,78.30
2023-05-04T09:41:34.112Z,77.00
2023-05-04T09:46:39.642Z,75.90
2023-05-04T09:51:47.287Z,73.90
2023-05-04T09:56:57.029Z,71.50
2023-05-04T10:02:18.148Z,69.50
2023-05-04T10:07:26.991Z,67.30
2023-05-04T10:12:31.516Z,66.90
2023-05-04T10:18:01.495Z,63.60
2023-05-04T10:23:24.113Z,58.60
2023-05-04T10:28:44.315Z,57.70
2023-05-04T10:33:52.123Z,58.40
2023-05-04T10:38:56.449Z,58.20
2023-05-04T10:44:10.088Z,57.70
2023-05-04T10:49:18.874Z,56.10
2023-05-04T10:54:22.886Z,55.10
2023-05-04T10:59:27.144Z,54.00
2023-05-04T11:04:33.532Z,53.70
2023-05-04T11:09:38.130Z,51.60
2023-05-04T11:14:43.451Z,47.90
2023-05-04T11:19:53.316Z,51.30
2023-05-04T11:24:57.777Z,49.80
2023-05-04T11:30:03.240Z,48.20
2023-05-04T11:35:11.810Z,49.50
2023-05-04T11:40:18.289Z,48.20
2023-05-04T11:45:25.071Z,46.80
2023-05-04T11:50:31.563Z,47.20
2023-05-04T11:55:36.131Z,47.10
2023-05-04T12:00:42.181Z,47.00
2023-05-04T12:05:51.579Z,46.30
2023-05-04T12:11:12.220Z,44.70
2023-05-04T12:16:18.758Z,44.80
2023-05-04T12:21:24.189Z,44.70
2023-05-04T12:26:28.634Z,44.60
2023-05-04T12:31:32.716Z,44.20
2023-05-04T12:36:38.321Z,44.40
2023-05-04T12:41:42.408Z,44.50
2023-05-04T12:46:46.491Z,44.60
2023-05-04T12:51:52.143Z,44.60
2023-05-04T12:56:56.252Z,45.00
2023-05-04T13:02:00.186Z,46.00
2023-05-04T13:07:05.677Z,45.10
2023-05-04T13:12:09.686Z,45.00
2023-05-04T13:17:15.158Z,44.80
2023-05-04T13:22:20.685Z,46.10
2023-05-04T13:27:24.955Z,46.00
2023-05-04T13:32:29.161Z,45.70
2023-05-04T13:37:35.755Z,46.40
2023-05-04T13:42:40.218Z,46.50
2023-05-04T13:47:45.266Z,47.60
2023-05-04T13:52:50.673Z,47.10
2023-05-04T13:57:55.430Z,46.60
2023-05-04T14:02:59.718Z,47.70
2023-05-04T14:08:06.139Z,47.00
2023-05-04T14:13:10.273Z,47.10
2023-05-04T14:18:14.675Z,47.00
2023-05-04T14:23:20.264Z,47.10
2023-05-04T14:28:24.607Z,47.20
2023-05-04T14:33:28.803Z,47.10
2023-05-04T14:38:36.125Z,48.00
2023-05-04T14:43:40.261Z,47.50
2023-05-04T14:48:44.354Z,47.50
2023-05-04T14:53:49.826Z,47.50
2023-05-04T14:58:54.225Z,47.40
2023-05-04T15:03:58.350Z,47.60
2023-05-04T15:09:04.869Z,47.80
2023-05-04T15:14:08.889Z,47.60
2023-05-04T15:19:12.848Z,47.60
2023-05-04T15:24:18.373Z,47.30
2023-05-04T15:29:22.948Z,47.70
2023-05-04T15:34:26.984Z,47.90
2023-05-04T15:39:32.511Z,48.20
2023-05-04T15:44:36.573Z,48.10
2023-05-04T15:49:40.752Z,48.30
2023-05-04T15:54:47.349Z,48.30
2023-05-04T15:59:51.336Z,48.40
2023-05-04T16:04:55.428Z,48.90
2023-05-04T16:10:01.105Z,48.30
2023-05-04T16:15:06.884Z,48.40
2023-05-04T16:20:12.505Z,48.20
2023-05-04T16:25:18.141Z,48.40
2023-05-04T16:30:22.712Z,48.40
2023-05-04T16:35:27.913Z,48.50
2023-05-04T16:40:33.511Z,48.40
2023-05-04T16:45:38.194Z,48.70
2023-05-04T16:50:42.244Z,48.50
2023-05-04T16:55:47.892Z,48.50
2023-05-04T17:00:51.900Z,48.50
2023-05-04T17:05:55.936Z,48.40
2023-05-04T17:11:01.627Z,48.70
2023-05-04T17:16:06.714Z,48.60
2023-05-04T17:21:10.924Z,48.50
2023-05-04T17:26:16.517Z,48.80
2023-05-04T17:31:20.594Z,48.60
2023-05-04T17:36:24.727Z,48.90
2023-05-04T17:41:31.260Z,49.00
2023-05-04T17:46:35.451Z,49.10
2023-05-04T17:51:40.120Z,49.00
2023-05-04T17:56:45.709Z,49.30
2023-05-04T18:01:49.789Z,50.20
2023-05-04T18:06:53.932Z,49.60
2023-05-04T18:11:59.298Z,49.70
2023-05-04T18:17:03.301Z,49.70
2023-05-04T18:22:07.656Z,50.00
2023-05-04T18:27:13.073Z,50.00
2023-05-04T18:32:17.250Z,50.20
2023-05-04T18:37:21.731Z,50.40
2023-05-04T18:42:27.468Z,50.30
2023-05-04T18:47:31.605Z,50.40
2023-05-04T18:52:35.696Z,50.60
2023-05-04T18:57:41.169Z,50.60
2023-05-04T19:02:45.297Z,50.70
2023-05-04T19:07:49.366Z,50.90
2023-05-04T19:12:54.853Z,50.90
2023-05-04T19:17:58.906Z,51.10
2023-05-04T19:23:03.039Z,51.30
2023-05-04T19:28:09.864Z,51.40
2023-05-04T19:33:13.878Z,51.50
2023-05-04T19:38:18.057Z,51.80
2023-05-04T19:43:23.459Z,51.90
2023-05-04T19:48:27.600Z,52.10
2023-05-04T19:53:31.697Z,52.40
2023-05-04T19:58:38.640Z,52.40
2023-05-04T20:03:42.673Z,52.50
2023-05-04T20:08:46.688Z,52.80
2023-05-04T20:13:54.091Z,53.10
2023-05-04T20:19:01.906Z,53.20
2023-05-04T20:24:08.677Z,53.50
2023-05-04T20:29:14.006Z,53.60
2023-05-04T20:34:18.970Z,53.90
2023-05-04T20:39:23.672Z,54.20
2023-05-04T20:44:29.245Z,54.60
2023-05-04T20:49:33.311Z,54.80
2023-05-04T20:54:37.323Z,55.00
2023-05-04T20:59:42.699Z,55.40
2023-05-04T21:04:48.788Z,55.70
2023-05-04T21:09:58.287Z,56.00
2023-05-04T21:15:03.887Z,56.30
2023-05-04T21:20:09.582Z,56.60
2023-05-04T21:25:13.768Z,56.70
2023-05-04T21:30:19.247Z,56.80
2023-05-04T21:35:24.554Z,57.10
2023-05-04T21:40:28.787Z,57.50
2023-05-04T21:45:34.382Z,57.70
2023-05-04T21:50:38.485Z,58.00
2023-05-04T21:55:42.616Z,58.40
2023-05-04T22:00:48.089Z,58.60
2023-05-04T22:05:54.437Z,58.90
2023-05-04T22:10:59.209Z,59.10
2023-05-04T22:16:04.843Z,60.20
2023-05-04T22:21:08.856Z,61.20
2023-05-04T22:26:12.876Z,61.40
2023-05-04T22:31:18.363Z,63.00
2023-05-04T22:36:22.567Z,63.70
2023-05-04T22:41:27.175Z,63.70
2023-05-04T22:46:32.713Z,64.80
2023-05-04T22:51:37.088Z,65.80
2023-05-04T22:56:41.393Z,66.90
2023-05-04T23:01:46.802Z,68.90
2023-05-04T23:06:50.913Z,68.50
2023-05-04T23:11:55.192Z,69.80
2023-05-04T23:17:00.654Z,69.80
2023-05-04T23:22:04.761Z,70.40
2023-05-04T23:27:08.791Z,72.20
2023-05-04T23:32:14.146Z,71.90
2023-05-04T23:37:18.199Z,72.20
2023-05-04T23:42:22.202Z,72.80
2023-05-04T23:47:27.594Z,73.70
2023-05-04T23:52:31.612Z,74.60
2023-05-04T23:57:35.674Z,78.30
